createdAt,value
2023-04-26T00:00:25.733Z,7.20
2023-04-26T00:05:29.529Z,7.30
2023-04-26T00:10:32.501Z,7.20
2023-04-26T00:15:36.460Z,7.20
2023-04-26T00:20:39.520Z,7.10
2023-04-26T00:25:42.546Z,7.10
2023-04-26T00:30:47.638Z,7.00
2023-04-26T00:35:50.483Z,7.00
2023-04-26T00:40:53.147Z,6.90
2023-04-26T00:45:57.610Z,6.80
2023-04-26T00:51:00.518Z,6.60
2023-04-26T00:56:03.369Z,6.50
2023-04-26T01:01:08.290Z,6.30
2023-04-26T01:06:10.966Z,6.30
2023-04-26T01:11:13.636Z,6.10
2023-04-26T01:16:19.184Z,6.10
2023-04-26T01:21:22.673Z,6.10
2023-04-26T01:26:27.174Z,6.00
2023-04-26T01:31:29.914Z,5.80
2023-04-26T01:36:33.333Z,5.80
2023-04-26T01:41:37.311Z,5.70
2023-04-26T01:46:40.130Z,5.80
2023-04-26T01:51:42.901Z,5.90
2023-04-26T01:56:46.869Z,5.70
2023-04-26T02:01:49.556Z,5.70
2023-04-26T02:06:52.232Z,5.60
2023-04-26T02:11:56.170Z,5.60
2023-04-26T02:16:58.862Z,5.70
2023-04-26T02:22:01.516Z,5.70
2023-04-26T02:27:05.675Z,5.80
2023-04-26T02:32:08.652Z,5.80
2023-04-26T02:37:11.790Z,5.90
2023-04-26T02:42:15.797Z,5.90
2023-04-26T02:47:18.807Z,5.80
2023-04-26T02:52:21.574Z,5.80
2023-04-26T02:57:25.609Z,5.80
2023-04-26T03:02:28.396Z,5.70
2023-04-26T03:07:31.345Z,5.70
2023-04-26T03:12:35.354Z,5.60
2023-04-26T03:17:38.252Z,5.50
2023-04-26T03:22:41.070Z,5.60
2023-04-26T03:27:45.135Z,5.50
2023-04-26T03:32:47.980Z,5.50
2023-04-26T03:37:53.182Z,5.30
2023-04-26T03:42:57.547Z,5.30
2023-04-26T03:48:00.302Z,5.30
2023-04-26T03:53:03.158Z,5.10
2023-04-26T03:58:08.070Z,5.00
2023-04-26T04:03:11.204Z,4.80
2023-04-26T04:08:14.055Z,4.80
2023-04-26T04:13:18.042Z,4.70
2023-04-26T04:18:20.998Z,4.90
2023-04-26T04:23:23.638Z,4.80
2023-04-26T04:28:27.628Z,5.10
2023-04-26T04:33:30.404Z,5.20
2023-04-26T04:38:33.116Z,5.10
2023-04-26T04:43:37.319Z,5.10
2023-04-26T04:48:40.151Z,5.00
2023-04-26T04:53:42.818Z,5.00
2023-04-26T04:58:47.733Z,5.00
2023-04-26T05:03:50.539Z,5.10
2023-04-26T05:08:53.475Z,5.40
2023-04-26T05:13:57.690Z,5.50
2023-04-26T05:19:00.571Z,5.70
2023-04-26T05:24:03.294Z,5.80
2023-04-26T05:29:07.366Z,5.90
2023-04-26T05:34:10.012Z,5.90
2023-04-26T05:39:13.204Z,6.10
2023-04-26T05:44:17.436Z,6.20
2023-04-26T05:49:20.400Z,6.50
2023-04-26T05:54:23.185Z,6.90
2023-04-26T05:59:27.207Z,7.00
2023-04-26T06:04:30.423Z,7.10
2023-04-26T06:09:33.360Z,7.40
2023-04-26T06:14:37.374Z,7.60
2023-04-26T06:19:40.060Z,7.70
2023-04-26T06:24:43.072Z,8.00
2023-04-26T06:29:47.612Z,7.90
2023-04-26T06:34:50.309Z,7.90
2023-04-26T06:39:52.974Z,7.80
2023-04-26T06:44:57.102Z,8.00
2023-04-26T06:49:59.750Z,8.30
2023-04-26T06:55:03.178Z,8.10
2023-04-26T07:00:09.548Z,8.30
2023-04-26T07:05:12.325Z,8.90
2023-04-26T07:10:15.250Z,9.40
2023-04-26T07:15:19.241Z,9.10
2023-04-26T07:20:22.821Z,9.50
2023-04-26T07:25:25.599Z,9.20
2023-04-26T07:30:32.442Z,9.80
2023-04-26T07:35:36.067Z,9.70
2023-04-26T07:40:38.737Z,10.40
2023-04-26T07:45:42.818Z,10.20
2023-04-26T07:50:45.678Z,9.40
2023-04-26T07:55:48.359Z,9.50
2023-04-26T08:00:52.481Z,9.10
2023-04-26T08:05:55.331Z,10.10
2023-04-26T08:10:58.157Z,9.60
2023-04-26T08:16:02.205Z,10.90
2023-04-26T08:21:05.029Z,11.50
2023-04-26T08:26:07.726Z,12.50
2023-04-26T08:31:11.768Z,14.10
2023-04-26T08:36:15.308Z,13.80
2023-04-26T08:41:23.232Z,12.10
2023-04-26T08:46:30.000Z,11.20
2023-04-26T08:51:34.126Z,10.60
2023-04-26T08:56:36.825Z,10.60
2023-04-26T09:01:41.967Z,10.60
2023-04-26T09:06:45.743Z,14.50
2023-04-26T09:11:59.591Z,15.00
2023-04-26T09:17:03.618Z,17.20
2023-04-26T09:22:07.301Z,14.60
2023-04-26T09:27:09.996Z,12.10
2023-04-26T09:32:13.954Z,11.40
2023-04-26T09:37:16.809Z,12.90
2023-04-26T09:42:20.131Z,13.10
2023-04-26T09:47:24.170Z,12.10
2023-04-26T09:52:28.891Z,15.90
2023-04-26T09:57:31.689Z,19.90
2023-04-26T10:02:36.370Z,14.90
2023-04-26T10:07:41.310Z,12.80
2023-04-26T10:12:44.500Z,17.80
2023-04-26T10:17:50.742Z,19.10
2023-04-26T10:23:01.176Z,16.80
2023-04-26T10:28:03.993Z,14.40
2023-04-26T10:33:17.338Z,12.40
2023-04-26T10:38:20.680Z,11.40
2023-04-26T10:43:30.205Z,11.20
2023-04-26T10:48:34.206Z,11.60
2023-04-26T10:54:00.426Z,13.20
2023-04-26T10:59:30.692Z,19.50
2023-04-26T11:04:54.734Z,18.40
2023-04-26T11:09:57.602Z,16.10
2023-04-26T11:15:01.740Z,14.40
2023-04-26T11:20:11.007Z,13.40
2023-04-26T11:25:14.698Z,12.30
2023-04-26T11:30:19.714Z,12.00
2023-04-26T11:35:24.793Z,12.80
2023-04-26T11:40:29.861Z,13.40
2023-04-26T11:45:33.388Z,14.20
2023-04-26T11:50:38.499Z,15.40
2023-04-26T11:55:41.853Z,15.30
2023-04-26T12:00:57.897Z,13.70
2023-04-26T12:06:02.182Z,12.50
2023-04-26T12:11:05.275Z,11.90
2023-04-26T12:16:22.401Z,11.60
2023-04-26T12:21:31.003Z,11.70
2023-04-26T12:26:45.995Z,13.50
2023-04-26T12:31:48.668Z,18.90
2023-04-26T12:36:52.748Z,18.40
2023-04-26T12:41:55.461Z,15.90
2023-04-26T12:46:58.287Z,15.30
2023-04-26T12:52:02.260Z,15.50
2023-04-26T12:57:05.178Z,18.00
2023-04-26T13:02:08.132Z,17.80
2023-04-26T13:07:12.359Z,16.40
2023-04-26T13:12:15.902Z,15.80
2023-04-26T13:17:18.555Z,15.50
2023-04-26T13:22:22.690Z,15.20
2023-04-26T13:27:25.603Z,14.40
2023-04-26T13:32:29.151Z,14.60
2023-04-26T13:37:33.188Z,15.60
2023-04-26T13:42:35.877Z,15.80
2023-04-26T13:47:38.775Z,20.40
2023-04-26T13:52:42.883Z,20.00
2023-04-26T13:57:45.605Z,16.30
2023-04-26T14:02:48.543Z,14.50
2023-04-26T14:07:54.962Z,14.00
2023-04-26T14:12:58.010Z,14.20
2023-04-26T14:18:00.733Z,14.50
2023-04-26T14:23:04.750Z,14.80
2023-04-26T14:28:08.252Z,15.60
2023-04-26T14:33:10.998Z,16.10
2023-04-26T14:38:15.595Z,15.10
2023-04-26T14:43:19.507Z,13.60
2023-04-26T14:48:22.171Z,12.90
2023-04-26T14:53:26.484Z,12.30
2023-04-26T14:58:29.355Z,12.40
2023-04-26T15:03:32.689Z,12.60
2023-04-26T15:08:37.150Z,12.80
2023-04-26T15:13:39.883Z,13.20
2023-04-26T15:18:44.197Z,13.70
2023-04-26T15:23:48.360Z,13.70
2023-04-26T15:28:51.145Z,13.20
2023-04-26T15:33:56.317Z,12.90
2023-04-26T15:39:00.301Z,12.80
2023-04-26T15:44:02.994Z,12.20
2023-04-26T15:49:05.694Z,12.00
2023-04-26T15:54:09.799Z,11.90
2023-04-26T15:59:12.437Z,11.80
2023-04-26T16:04:15.208Z,11.80
2023-04-26T16:14:26.277Z,11.50
2023-04-26T16:19:31.490Z,11.40
2023-04-26T16:24:35.829Z,11.20
2023-04-26T16:29:38.577Z,11.20
2023-04-26T16:34:41.890Z,11.20
2023-04-26T16:39:45.942Z,11.10
2023-04-26T16:44:48.616Z,10.90
2023-04-26T16:49:52.174Z,10.50
2023-04-26T16:54:56.187Z,10.40
2023-04-26T16:59:59.011Z,10.40
2023-04-26T17:05:02.486Z,10.50
2023-04-26T17:10:07.502Z,10.50
2023-04-26T17:15:11.256Z,10.60
2023-04-26T17:20:14.272Z,10.40
2023-04-26T17:25:18.554Z,10.40
2023-04-26T17:30:22.370Z,10.30
2023-04-26T17:35:25.260Z,10.10
2023-04-26T17:40:29.222Z,9.90
2023-04-26T17:45:31.894Z,9.80
2023-04-26T17:50:34.580Z,9.80
2023-04-26T17:55:38.548Z,9.70
2023-04-26T18:00:41.191Z,9.50
2023-04-26T18:05:43.845Z,9.60
2023-04-26T18:10:48.702Z,9.50
2023-04-26T18:15:51.805Z,9.40
2023-04-26T18:20:54.536Z,9.30
2023-04-26T18:25:58.468Z,9.10
2023-04-26T18:31:01.710Z,9.10
2023-04-26T18:36:05.663Z,8.90
2023-04-26T18:41:09.707Z,9.00
2023-04-26T18:46:12.383Z,8.90
2023-04-26T18:51:15.167Z,8.90
2023-04-26T18:56:19.179Z,8.80
2023-04-26T19:01:21.879Z,8.80
2023-04-26T19:06:24.566Z,8.70
2023-04-26T19:11:28.592Z,8.70
2023-04-26T19:16:31.317Z,8.70
2023-04-26T19:21:34.123Z,8.80
2023-04-26T19:26:39.349Z,8.80
2023-04-26T19:31:42.046Z,8.80
2023-04-26T19:36:44.728Z,8.60
2023-04-26T19:41:48.680Z,8.60
2023-04-26T19:46:51.443Z,8.50
2023-04-26T19:51:54.155Z,8.40
2023-04-26T19:56:58.195Z,8.00
2023-04-26T20:02:00.921Z,7.80
2023-04-26T20:07:04.922Z,7.60
2023-04-26T20:12:09.003Z,7.40
2023-04-26T20:17:11.657Z,7.20
2023-04-26T20:22:14.334Z,7.00
2023-04-26T20:27:20.847Z,6.80
2023-04-26T20:32:24.086Z,6.60
2023-04-26T20:37:29.243Z,6.40
2023-04-26T20:42:33.401Z,6.20
2023-04-26T20:47:37.388Z,6.00
2023-04-26T21:05:05.690Z,5.50
2023-04-26T21:34:39.579Z,4.60
2023-04-26T21:39:42.226Z,4.70
2023-04-26T21:44:44.915Z,4.90
2023-04-26T21:49:49.060Z,4.70
2023-04-26T21:54:52.969Z,4.50
2023-04-26T21:59:56.612Z,4.20
2023-04-26T22:05:00.670Z,4.10
2023-04-26T22:10:03.721Z,4.10
2023-04-26T22:15:07.356Z,4.00
2023-04-26T22:20:12.897Z,3.80
2023-04-26T22:25:15.719Z,3.70
2023-04-26T22:30:25.400Z,3.60
2023-04-26T22:35:30.310Z,3.40
2023-04-26T22:40:33.067Z,3.30
2023-04-26T22:45:35.985Z,3.20
2023-04-26T22:50:40.185Z,3.20
2023-04-26T22:55:42.858Z,3.10
2023-04-26T23:00:45.736Z,3.00
2023-04-26T23:05:49.773Z,3.10
2023-04-26T23:10:52.486Z,3.40
2023-04-26T23:15:55.151Z,3.40
2023-04-26T23:20:59.131Z,3.60
2023-04-26T23:26:01.834Z,3.30
2023-04-26T23:31:04.619Z,3.10
2023-04-26T23:36:09.919Z,3.00
2023-04-26T23:41:12.721Z,2.80
2023-04-26T23:46:15.693Z,2.70
2023-04-26T23:51:19.667Z,2.80
2023-04-26T23:56:22.342Z,2.90
